Time;durP1;ratioP1;P1;durP2;ratioP2;P2;SDS_P1;SDS_P2;PMS_P1;PMS_P2;Temp;Humidity;BMP_temperature;BMP_pressure;BME280_temperature;BME280_humidity;BME280_pressure;Samples;Min_cycle;Max_cycle;Signal;HPM_P1;HPM_P2
2021/06/12 00:02:00;;;;;;;;;;;;;;;20.44;67.57;100756.41;5088473;28;1946;-46
2021/06/12 00:04:28;;;;;;;;;;;;;;;20.32;68.98;100750.34;5089316;28;1971;-46
2021/06/12 00:06:58;;;;;;;;;;;;;;;20.29;69.08;100755.16;5075494;28;1653;-48
2021/06/12 00:09:24;;;;;;;;;;;;;;;20.32;68.93;100782.59;5085106;28;1081;-46
2021/06/12 00:11:50;;;;;;;;;;;;;;;20.27;68.16;100769.59;5079065;28;1716;-46
2021/06/12 00:14:16;;;;;;;;;;;;;;;20.34;68.88;100763.66;5090418;28;1874;-47
2021/06/12 00:16:42;;;;;;;;;;;;;;;20.41;68.55;100749.50;5086678;28;1759;-49
2021/06/12 00:19:08;;;;;;;;;;;;;;;20.36;67.93;100767.03;5075490;28;1443;-46
2021/06/12 00:21:36;;;;;;;;;;;;;;;20.30;67.91;100756.88;5074778;28;1502;-47
2021/06/12 00:24:02;;;;;;;;;;;;;;;20.31;67.50;100769.28;5074910;28;1910;-47
2021/06/12 00:26:28;;;;;;;;;;;;;;;20.24;68.57;100769.88;5085585;28;1550;-47
2021/06/12 00:28:54;;;;;;;;;;;;;;;20.26;68.38;100756.31;5083058;28;1796;-47
2021/06/12 00:31:20;;;;;;;;;;;;;;;20.35;67.40;100765.31;5079836;28;1619;-47
2021/06/12 00:33:46;;;;;;;;;;;;;;;20.24;67.92;100759.13;5084364;28;1787;-46
2021/06/12 00:36:12;;;;;;;;;;;;;;;20.22;67.24;100754.91;5085753;28;1723;-47
2021/06/12 00:38:40;;;;;;;;;;;;;;;20.21;68.09;100754.06;5084259;28;1726;-47
2021/06/12 00:41:06;;;;;;;;;;;;;;;20.23;67.88;100752.06;5082333;28;1661;-47
2021/06/12 00:43:32;;;;;;;;;;;;;;;20.32;67.26;100771.84;5084300;28;1909;-46
2021/06/12 00:45:58;;;;;;;;;;;;;;;20.24;68.18;100759.13;5081747;28;1967;-47
2021/06/12 00:48:27;;;;;;;;;;;;;;;20.21;67.64;100767.50;5085373;28;1470;-46
2021/06/12 01:01:34;;;;;;;;;;;;;;;20.25;67.57;100742.03;4725027;27;10002021;-47
2021/06/12 01:04:02;;;;;;;;;;;;;;;20.21;66.41;100764.81;5067161;28;1787;-47
2021/06/12 01:06:33;;;;;;;;;;;;;;;20.22;66.12;100760.28;5056011;28;1954;-47
2021/06/12 01:08:59;;;;;;;;;;;;;;;20.21;66.99;100761.25;5058258;28;1981;-47
2021/06/12 01:11:25;;;;;;;;;;;;;;;20.18;66.06;100753.50;5067687;28;1769;-47
2021/06/12 01:13:58;;;;;;;;;;;;;;;20.18;66.58;100758.88;5079067;28;2020;-48
2021/06/12 01:16:28;;;;;;;;;;;;;;;20.26;67.02;100767.88;5068684;28;1637;-47
2021/06/12 01:18:56;;;;;;;;;;;;;;;20.29;66.83;100733.69;5049618;28;1075;-47
2021/06/12 01:21:25;;;;;;;;;;;;;;;20.20;67.14;100757.72;5062591;28;1789;-47
2021/06/12 01:24:15;;;;;;;;;;;;;;;20.19;66.86;100752.50;5067940;28;1509;-47
2021/06/12 01:26:52;;;;;;;;;;;;;;;20.19;66.09;100761.41;5065482;28;1989;-47
2021/06/12 01:29:33;;;;;;;;;;;;;;;20.16;66.77;100756.31;5056799;28;1979;-47
2021/06/12 01:32:02;;;;;;;;;;;;;;;20.14;67.01;100762.84;5083166;28;1807;-47
2021/06/12 01:34:30;;;;;;;;;;;;;;;20.17;67.50;100768.72;5065539;28;1811;-47
2021/06/12 01:37:04;;;;;;;;;;;;;;;20.14;66.81;100758.31;5059783;28;1895;-48
2021/06/12 01:39:35;;;;;;;;;;;;;;;20.17;67.01;100763.38;5057298;28;1956;-47
2021/06/12 01:42:02;;;;;;;;;;;;;;;20.21;66.32;100758.56;5065017;28;1708;-47
2021/06/12 01:44:31;;;;;;;;;;;;;;;20.13;67.24;100764.66;5052026;28;1991;-47
2021/06/12 01:47:18;;;;;;;;;;;;;;;20.19;67.51;100782.03;5056688;28;1809;-47
2021/06/12 01:50:00;;;;;;;;;;;;;;;20.20;67.23;100763.09;5048747;28;2052;-47
2021/06/12 01:52:40;;;;;;;;;;;;;;;20.19;66.70;100761.41;5056524;28;1608;-47
2021/06/12 01:55:07;;;;;;;;;;;;;;;20.23;66.46;100773.56;5048933;28;1011;-47
2021/06/12 01:57:44;;;;;;;;;;;;;;;20.10;66.28;100762.25;5064167;28;1948;-47
2021/06/12 02:02:58;;;;;;;;;;;;;;;20.11;66.91;100773.84;5067468;28;1617;-45
2021/06/12 02:05:26;;;;;;;;;;;;;;;20.11;66.41;100761.25;5062653;28;1877;-45
2021/06/12 02:08:05;;;;;;;;;;;;;;;20.12;66.97;100765.66;5055187;28;1449;-46
2021/06/12 02:10:32;;;;;;;;;;;;;;;20.08;66.50;100774.97;5055350;28;1910;-45
2021/06/12 02:12:58;;;;;;;;;;;;;;;20.07;66.91;100767.91;5067002;28;1912;-46
2021/06/12 02:15:27;;;;;;;;;;;;;;;20.07;66.94;100762.53;5062036;28;1662;-44
2021/06/12 02:18:09;;;;;;;;;;;;;;;20.09;66.73;100748.97;5054672;28;1182;-45
2021/06/12 02:20:38;;;;;;;;;;;;;;;20.16;66.30;100761.69;5065274;28;1800;-45
2021/06/12 02:23:17;;;;;;;;;;;;;;;20.22;66.62;100755.75;5072947;28;1745;-45
2021/06/12 02:25:47;;;;;;;;;;;;;;;20.10;66.53;100756.91;5055212;28;1499;-44
2021/06/12 02:28:14;;;;;;;;;;;;;;;20.07;66.86;100767.91;5069635;28;1938;-45
2021/06/12 02:30:55;;;;;;;;;;;;;;;20.10;66.24;100773.00;5064094;28;1977;-45
2021/06/12 02:33:23;;;;;;;;;;;;;;;20.07;66.50;100773.28;5073578;28;1765;-44
2021/06/12 02:35:54;;;;;;;;;;;;;;;20.11;66.50;100760.41;5072283;28;1825;-45
2021/06/12 02:38:23;;;;;;;;;;;;;;;20.11;66.99;100769.31;5072517;28;1510;-45
2021/06/12 02:40:53;;;;;;;;;;;;;;;20.16;66.58;100758.16;5068097;28;1898;-46
2021/06/12 02:43:20;;;;;;;;;;;;;;;20.19;66.40;100756.03;5070358;28;1747;-45
2021/06/12 02:45:49;;;;;;;;;;;;;;;20.18;67.35;100759.72;5070258;28;1852;-45
2021/06/12 02:48:18;;;;;;;;;;;;;;;20.21;67.02;100777.34;5054450;28;1035;-45
2021/06/12 02:50:48;;;;;;;;;;;;;;;20.13;66.46;100775.38;5061683;28;1925;-45
2021/06/12 02:53:15;;;;;;;;;;;;;;;20.17;67.32;100768.72;5072233;28;1808;-44
2021/06/12 02:56:04;;;;;;;;;;;;;;;20.13;67.18;100774.53;5059534;28;1777;-45
2021/06/12 02:58:45;;;;;;;;;;;;;;;20.09;66.94;100789.25;5065500;28;1816;-44
2021/06/12 03:01:13;;;;;;;;;;;;;;;20.16;67.01;100787.69;5071233;28;1802;-45
2021/06/12 03:03:42;;;;;;;;;;;;;;;20.13;66.93;100783.44;5072162;28;1858;-45
2021/06/12 03:06:11;;;;;;;;;;;;;;;20.09;67.26;100782.03;5057072;28;1372;-44
2021/06/12 03:08:46;;;;;;;;;;;;;;;20.05;66.81;100777.94;5059477;28;1864;-44
2021/06/12 03:11:20;;;;;;;;;;;;;;;20.12;66.58;100762.13;5069202;28;1971;-45
2021/06/12 03:13:49;;;;;;;;;;;;;;;20.08;67.54;100788.41;5070431;28;1602;-44
2021/06/12 03:16:17;;;;;;;;;;;;;;;20.16;67.12;100793.91;5059631;28;1870;-45
2021/06/12 03:18:47;;;;;;;;;;;;;;;20.16;67.22;100780.47;5073833;28;1025;-44
2021/06/12 03:21:15;;;;;;;;;;;;;;;20.20;66.62;100794.47;5068558;28;2090;-44
2021/06/12 03:23:44;;;;;;;;;;;;;;;20.11;67.25;100790.78;5071584;28;1793;-44
2021/06/12 03:26:11;;;;;;;;;;;;;;;20.07;66.57;100784.00;5061982;28;1783;-45
2021/06/12 03:28:46;;;;;;;;;;;;;;;20.10;66.75;100791.78;5068013;28;1989;-45
2021/06/12 03:31:33;;;;;;;;;;;;;;;20.05;66.46;100775.25;5080237;28;1975;-45
2021/06/12 03:34:00;;;;;;;;;;;;;;;20.09;67.25;100806.19;5093440;28;1937;-45
2021/06/12 03:36:28;;;;;;;;;;;;;;;20.06;67.30;100793.91;5089011;28;1933;-45
2021/06/12 03:38:56;;;;;;;;;;;;;;;20.16;67.37;100796.59;5087026;28;1921;-44
2021/06/12 03:41:24;;;;;;;;;;;;;;;20.12;66.41;100794.34;5083171;28;1794;-45
2021/06/12 03:43:56;;;;;;;;;;;;;;;20.14;67.18;100806.63;5073554;28;1682;-45
2021/06/12 03:46:23;;;;;;;;;;;;;;;20.16;67.13;100810.00;5073835;28;1957;-44
2021/06/12 03:48:51;;;;;;;;;;;;;;;20.17;67.33;100805.47;5083531;28;2190;-46
2021/06/12 03:51:18;;;;;;;;;;;;;;;20.25;66.36;100809.19;5087788;28;2337;-45
2021/06/12 03:53:47;;;;;;;;;;;;;;;20.25;66.43;100811.00;5090527;28;1547;-45
2021/06/12 03:56:15;;;;;;;;;;;;;;;20.28;66.38;100799.97;5087139;28;1623;-43
2021/06/12 03:58:42;;;;;;;;;;;;;;;20.40;67.49;100797.97;5090878;28;1271;-45
2021/06/12 04:01:13;;;;;;;;;;;;;;;20.50;66.41;100816.78;5086977;28;1490;-45
2021/06/12 04:03:40;;;;;;;;;;;;;;;20.50;67.37;100819.47;5066811;28;1518;-45
2021/06/12 04:06:09;;;;;;;;;;;;;;;20.50;68.62;100806.88;5053297;28;1749;-45
2021/06/12 04:08:37;;;;;;;;;;;;;;;20.53;69.09;100806.59;5059697;28;1696;-44
2021/06/12 04:11:04;;;;;;;;;;;;;;;20.55;68.14;100823.41;5066038;28;2017;-45
2021/06/12 04:13:38;;;;;;;;;;;;;;;20.61;69.63;100814.81;5071336;28;1840;-45
2021/06/12 04:16:06;;;;;;;;;;;;;;;20.64;68.82;100819.88;5060821;28;1775;-45
2021/06/12 04:18:38;;;;;;;;;;;;;;;20.63;69.01;100830.75;5052567;28;1097;-45
2021/06/12 04:21:06;;;;;;;;;;;;;;;20.54;70.73;100819.00;5053522;28;1758;-44
2021/06/12 04:23:33;;;;;;;;;;;;;;;20.49;69.45;100837.38;5058522;28;1939;-45
2021/06/12 04:25:59;;;;;;;;;;;;;;;20.54;70.15;100823.56;5071041;28;1943;-45
2021/06/12 04:28:25;;;;;;;;;;;;;;;20.49;69.12;100839.25;5070488;28;1983;-45
2021/06/12 04:30:52;;;;;;;;;;;;;;;20.48;68.71;100846.47;5062272;28;1901;-44
2021/06/12 04:33:23;;;;;;;;;;;;;;;20.45;69.17;100841.34;5068498;28;1115;-45
2021/06/12 04:35:56;;;;;;;;;;;;;;;20.42;69.41;100842.50;5065471;28;1860;-45
2021/06/12 04:38:22;;;;;;;;;;;;;;;20.35;68.62;100848.59;5064587;28;1507;-45
2021/06/12 04:40:48;;;;;;;;;;;;;;;20.22;69.09;100849.72;5063714;28;1898;-45
2021/06/12 04:43:15;;;;;;;;;;;;;;;20.22;68.14;100865.84;5063744;28;1732;-45
2021/06/12 04:45:42;;;;;;;;;;;;;;;20.25;69.47;100856.63;5068776;28;1973;-45
2021/06/12 04:48:29;;;;;;;;;;;;;;;20.24;68.43;100847.75;5064972;28;1082;-45
2021/06/12 04:50:57;;;;;;;;;;;;;;;20.30;68.19;100848.19;5056555;28;2010;-45
2021/06/12 04:53:30;;;;;;;;;;;;;;;20.26;68.40;100851.13;5071678;28;1958;-44
2021/06/12 04:56:00;;;;;;;;;;;;;;;20.25;68.88;100862.00;5074768;28;1962;-45
2021/06/12 04:58:40;;;;;;;;;;;;;;;20.22;68.78;100856.94;5068422;28;2006;-45
2021/06/12 05:01:08;;;;;;;;;;;;;;;20.20;69.24;100859.75;5071230;28;1958;-45
2021/06/12 05:03:40;;;;;;;;;;;;;;;20.28;68.47;100859.06;5063225;28;1647;-44
2021/06/12 05:06:10;;;;;;;;;;;;;;;20.30;69.00;100853.56;5070968;28;1454;-45
2021/06/12 05:08:50;;;;;;;;;;;;;;;20.15;68.57;100835.16;5070684;28;1769;-45
2021/06/12 05:11:17;;;;;;;;;;;;;;;20.29;68.67;100858.03;5063642;28;1981;-45
2021/06/12 05:13:45;;;;;;;;;;;;;;;20.35;68.53;100860.19;5057967;28;1899;-45
2021/06/12 05:16:15;;;;;;;;;;;;;;;20.39;68.61;100864.28;5070579;28;2220;-45
2021/06/12 05:18:46;;;;;;;;;;;;;;;20.32;68.82;100865.00;5069155;28;1888;-45
2021/06/12 05:21:28;;;;;;;;;;;;;;;20.27;68.75;100866.28;5064226;28;1588;-45
2021/06/12 05:24:10;;;;;;;;;;;;;;;20.36;68.18;100863.72;5065206;28;2010;-44
2021/06/12 05:26:40;;;;;;;;;;;;;;;20.44;68.36;100863.84;5070352;28;1789;-45
2021/06/12 05:29:07;;;;;;;;;;;;;;;20.43;68.21;100878.25;5062040;28;1956;-46
2021/06/12 05:31:33;;;;;;;;;;;;;;;20.43;68.54;100872.88;5052641;28;1902;-45
2021/06/12 05:34:00;;;;;;;;;;;;;;;20.43;68.47;100870.19;5071321;28;1849;-45
2021/06/12 05:36:26;;;;;;;;;;;;;;;20.40;68.39;100886.63;5068954;28;1941;-45
2021/06/12 05:38:52;;;;;;;;;;;;;;;20.43;68.09;100894.38;5073156;28;1507;-45
2021/06/12 05:41:18;;;;;;;;;;;;;;;20.43;68.32;100875.56;5064136;28;1960;-45
2021/06/12 05:44:01;;;;;;;;;;;;;;;20.44;67.49;100878.13;5063516;28;1822;-45
2021/06/12 05:46:28;;;;;;;;;;;;;;;20.50;67.41;100889.31;5066355;28;1979;-45
2021/06/12 05:48:56;;;;;;;;;;;;;;;20.52;66.79;100880.09;5055549;28;1003;-44
2021/06/12 05:51:23;;;;;;;;;;;;;;;20.63;66.58;100881.81;5066496;28;1967;-45
2021/06/12 05:54:10;;;;;;;;;;;;;;;20.63;66.58;100888.06;5062956;28;2123;-45
2021/06/12 05:56:37;;;;;;;;;;;;;;;20.69;66.04;100870.50;5060828;28;1660;-45
2021/06/12 05:59:18;;;;;;;;;;;;;;;20.71;67.13;100870.34;5062543;28;1792;-45
2021/06/12 06:01:55;;;;;;;;;;;;;;;20.73;67.00;100866.53;5067359;28;1857;-45
2021/06/12 06:04:21;;;;;;;;;;;;;;;20.70;66.13;100874.03;5054141;28;1063;-45
2021/06/12 06:06:48;;;;;;;;;;;;;;;20.74;65.87;100883.50;5055749;28;1432;-44
2021/06/12 06:09:15;;;;;;;;;;;;;;;20.73;65.81;100865.66;5070153;28;1808;-45
2021/06/12 06:11:42;;;;;;;;;;;;;;;20.80;65.91;100867.63;5070137;28;1977;-45
2021/06/12 06:14:09;;;;;;;;;;;;;;;20.90;66.27;100861.41;5071015;28;1835;-46
2021/06/12 06:16:36;;;;;;;;;;;;;;;20.88;65.27;100872.28;5069418;28;1623;-45
2021/06/12 06:19:24;;;;;;;;;;;;;;;20.92;66.27;100854.88;5074426;28;1142;-45
2021/06/12 06:21:51;;;;;;;;;;;;;;;20.86;64.83;100872.44;5073113;28;1671;-45
2021/06/12 06:24:20;;;;;;;;;;;;;;;20.88;65.91;100869.59;5073043;28;1601;-44
2021/06/12 06:26:50;;;;;;;;;;;;;;;20.90;65.78;100877.53;5068329;28;1457;-45
2021/06/12 06:29:19;;;;;;;;;;;;;;;20.89;66.53;100876.69;5063875;28;1650;-45
2021/06/12 06:31:46;;;;;;;;;;;;;;;20.86;66.20;100867.06;5069081;28;1854;-45
2021/06/12 06:34:19;;;;;;;;;;;;;;;20.82;65.48;100868.34;5078119;28;1761;-45
2021/06/12 06:36:48;;;;;;;;;;;;;;;20.83;65.34;100871.88;5063091;28;1717;-44
2021/06/12 06:39:14;;;;;;;;;;;;;;;20.81;65.42;100857.72;5070632;28;1950;-45
2021/06/12 06:41:50;;;;;;;;;;;;;;;20.80;65.13;100869.47;5073860;28;1925;-46
2021/06/12 06:44:17;;;;;;;;;;;;;;;20.77;65.37;100873.31;5060210;28;1918;-45
2021/06/12 06:46:43;;;;;;;;;;;;;;;20.77;65.83;100864.38;5066941;28;1501;-44
2021/06/12 06:49:17;;;;;;;;;;;;;;;20.74;64.97;100873.59;5074105;28;1092;-45
2021/06/12 06:51:51;;;;;;;;;;;;;;;20.75;65.53;100863.69;5060319;28;1911;-45
2021/06/12 06:54:20;;;;;;;;;;;;;;;20.80;65.85;100850.69;5066105;28;1495;-46
2021/06/12 06:56:50;;;;;;;;;;;;;;;20.81;65.38;100863.09;5068415;28;1497;-45
2021/06/12 06:59:17;;;;;;;;;;;;;;;20.80;65.19;100867.63;5071909;28;1325;-45
2021/06/12 07:04:29;;;;;;;;;;;;;;;20.89;65.32;100875.81;5040567;28;1593;-46
2021/06/12 07:06:58;;;;;;;;;;;;;;;20.97;65.33;100875.94;5048355;28;1738;-46
2021/06/12 07:09:26;;;;;;;;;;;;;;;20.95;65.35;100865.34;5049245;28;2031;-45
2021/06/12 07:11:53;;;;;;;;;;;;;;;20.91;65.44;100845.13;5038007;28;1989;-44
2021/06/12 07:14:19;;;;;;;;;;;;;;;20.93;65.58;100866.47;5051787;28;1767;-45
2021/06/12 07:16:45;;;;;;;;;;;;;;;21.00;65.36;100863.06;5045159;28;1576;-44
2021/06/12 07:19:20;;;;;;;;;;;;;;;20.95;66.30;100864.47;5030781;28;1086;-46
2021/06/12 07:21:46;;;;;;;;;;;;;;;20.97;65.91;100866.06;5044793;28;1834;-45
2021/06/12 07:24:45;;;;;;;;;;;;;;;21.02;66.77;100870.97;5041741;28;1419;-45
2021/06/12 07:27:13;;;;;;;;;;;;;;;21.03;67.06;100861.94;5045646;28;1787;-44
2021/06/12 07:29:47;;;;;;;;;;;;;;;21.05;67.09;100866.16;5043162;28;1993;-45
2021/06/12 07:32:14;;;;;;;;;;;;;;;21.03;66.47;100873.53;5049864;28;1460;-46
2021/06/12 07:34:40;;;;;;;;;;;;;;;20.94;66.36;100857.44;5034309;28;1344;-45
2021/06/12 07:37:16;;;;;;;;;;;;;;;20.90;66.34;100858.72;5034104;28;1148;-45
2021/06/12 07:39:48;;;;;;;;;;;;;;;20.94;66.90;100860.94;5051092;28;1506;-45
2021/06/12 07:42:14;;;;;;;;;;;;;;;21.00;66.03;100878.34;5049516;28;1810;-45
2021/06/12 07:44:45;;;;;;;;;;;;;;;21.00;66.89;100873.81;5042654;28;1449;-47
2021/06/12 07:47:12;;;;;;;;;;;;;;;20.99;66.47;100872.13;5032979;28;1694;-45
2021/06/12 07:49:39;;;;;;;;;;;;;;;21.04;66.77;100867.16;5050726;28;1975;-46
2021/06/12 07:52:16;;;;;;;;;;;;;;;21.03;66.88;100868.16;5052029;28;1561;-45
2021/06/12 07:54:48;;;;;;;;;;;;;;;21.00;67.12;100863.06;5040400;28;1612;-46
2021/06/12 07:57:16;;;;;;;;;;;;;;;21.09;66.87;100868.53;5050721;28;1648;-45
2021/06/12 07:59:45;;;;;;;;;;;;;;;21.10;67.17;100872.94;5046087;28;2009;-44
2021/06/12 08:02:13;;;;;;;;;;;;;;;21.15;66.36;100870.66;5038028;28;1851;-45
2021/06/12 08:04:40;;;;;;;;;;;;;;;21.12;66.71;100865.56;5052908;28;1843;-46
2021/06/12 08:07:08;;;;;;;;;;;;;;;21.18;66.25;100854.22;5060053;28;1035;-45
2021/06/12 08:09:35;;;;;;;;;;;;;;;21.17;66.96;100863.28;5057343;28;1969;-45
2021/06/12 08:12:08;;;;;;;;;;;;;;;21.16;67.68;100875.88;5066040;28;1810;-47
2021/06/12 08:14:35;;;;;;;;;;;;;;;21.12;67.63;100865.56;5067800;28;1627;-45
2021/06/12 08:17:24;;;;;;;;;;;;;;;21.13;67.75;100867.25;5057487;28;1814;-45
2021/06/12 08:19:51;;;;;;;;;;;;;;;21.15;67.15;100873.34;5052622;28;1611;-47
2021/06/12 08:22:20;;;;;;;;;;;;;;;21.19;67.42;100850.56;5067470;28;2068;-45
2021/06/12 08:24:48;;;;;;;;;;;;;;;21.22;67.49;100858.31;5062171;28;1171;-45
2021/06/12 08:27:29;;;;;;;;;;;;;;;21.21;67.33;100859.31;5054654;28;1790;-45
2021/06/12 08:29:59;;;;;;;;;;;;;;;21.20;67.88;100869.22;5067942;28;1906;-45
2021/06/12 08:32:26;;;;;;;;;;;;;;;21.20;68.51;100863.00;5053882;28;1813;-46
2021/06/12 08:34:53;;;;;;;;;;;;;;;21.17;67.69;100855.22;5053519;28;1907;-46
2021/06/12 08:37:21;;;;;;;;;;;;;;;21.16;68.55;100873.19;5071416;28;1704;-45
2021/06/12 08:39:48;;;;;;;;;;;;;;;21.29;67.44;100862.13;5054947;28;1170;-45
2021/06/12 08:42:14;;;;;;;;;;;;;;;21.24;67.57;100869.78;5070171;28;1779;-46
2021/06/12 08:44:46;;;;;;;;;;;;;;;21.23;66.81;100857.34;5061958;28;1826;-45
2021/06/12 08:47:16;;;;;;;;;;;;;;;21.27;67.84;100858.72;5062857;28;1744;-45
2021/06/12 08:49:42;;;;;;;;;;;;;;;21.25;67.71;100874.16;5065076;28;1902;-46
2021/06/12 08:52:09;;;;;;;;;;;;;;;21.22;67.37;100872.59;5051710;28;1142;-45
2021/06/12 08:54:35;;;;;;;;;;;;;;;21.23;66.58;100866.25;5059028;28;1247;-48
2021/06/12 08:57:01;;;;;;;;;;;;;;;21.29;66.76;100851.34;5068582;28;1317;-44
2021/06/12 08:59:34;;;;;;;;;;;;;;;21.30;67.00;100855.72;5069671;28;1513;-45
2021/06/12 09:02:00;;;;;;;;;;;;;;;21.32;66.97;100845.66;5065160;28;1821;-44
2021/06/12 09:04:46;;;;;;;;;;;;;;;21.36;66.63;100868.56;5052153;28;1078;-43
2021/06/12 09:07:26;;;;;;;;;;;;;;;21.38;66.36;100855.81;5051775;28;1246;-45
2021/06/12 09:12:48;;;;;;;;;;;;;;;21.33;67.07;100871.59;5055031;28;2278;-44
2021/06/12 09:18:39;;;;;;;;;;;;;;;21.38;66.09;100853.13;5075435;28;2510;-44
2021/06/12 09:21:12;;;;;;;;;;;;;;;21.47;65.61;100859.50;5071279;28;1614;-44
2021/06/12 09:23:46;;;;;;;;;;;;;;;21.52;66.96;100872.50;5071289;28;1393;-44
2021/06/12 09:26:15;;;;;;;;;;;;;;;21.51;66.04;100862.75;5072465;28;1747;-44
2021/06/12 09:28:54;;;;;;;;;;;;;;;21.54;64.30;100849.00;5067145;28;1720;-45
2021/06/12 09:31:25;;;;;;;;;;;;;;;21.53;65.12;100853.53;5063489;28;1977;-46
2021/06/12 09:33:55;;;;;;;;;;;;;;;21.55;65.39;100864.16;5073259;28;1748;-45
2021/06/12 09:36:51;;;;;;;;;;;;;;;21.59;65.94;100852.09;5069131;28;1818;-45
2021/06/12 09:39:20;;;;;;;;;;;;;;;21.56;65.71;100847.00;5067593;28;1592;-45
2021/06/12 09:41:47;;;;;;;;;;;;;;;21.67;65.19;100849.50;5065827;28;1372;-45
2021/06/12 09:44:29;;;;;;;;;;;;;;;21.69;65.58;100841.28;5081353;28;1397;-46
2021/06/12 09:46:56;;;;;;;;;;;;;;;21.68;65.04;100840.41;5077280;28;1539;-45
2021/06/12 09:49:29;;;;;;;;;;;;;;;21.68;65.96;100835.00;5076679;28;1092;-45
2021/06/12 09:52:06;;;;;;;;;;;;;;;21.68;65.02;100850.31;5074156;28;1914;-47
2021/06/12 09:54:44;;;;;;;;;;;;;;;21.71;65.47;100829.34;5060641;28;1945;-45
2021/06/12 09:59:53;;;;;;;;;;;;;;;21.76;64.73;100832.41;5072575;28;1869;-45
2021/06/12 10:02:34;;;;;;;;;;;;;;;21.71;65.18;100853.56;5075436;28;1451;-46
2021/06/12 10:05:02;;;;;;;;;;;;;;;21.67;65.35;100854.88;5076744;28;1461;-45
2021/06/12 10:07:28;;;;;;;;;;;;;;;21.61;65.38;100825.88;5070658;28;1344;-45
2021/06/12 10:12:51;;;;;;;;;;;;;;;21.71;65.38;100831.19;5082416;28;1672;-45
2021/06/12 10:15:23;;;;;;;;;;;;;;;21.80;65.27;100824.88;5071095;28;1417;-46
2021/06/12 10:17:51;;;;;;;;;;;;;;;21.89;64.88;100820.44;5071797;28;1740;-45
2021/06/12 10:20:21;;;;;;;;;;;;;;;21.84;65.30;100815.50;5073383;28;1696;-45
2021/06/12 10:22:49;;;;;;;;;;;;;;;21.80;64.83;100812.25;5068608;28;1428;-45
2021/06/12 10:25:23;;;;;;;;;;;;;;;21.77;65.33;100809.88;5067796;28;1354;-45
2021/06/12 10:27:53;;;;;;;;;;;;;;;21.87;65.40;100814.38;5068422;28;1393;-45
2021/06/12 10:30:21;;;;;;;;;;;;;;;21.77;64.60;100798.28;5059292;28;1913;-45
2021/06/12 10:32:51;;;;;;;;;;;;;;;21.79;64.22;100793.59;5064353;28;1083;-46
2021/06/12 10:38:18;;;;;;;;;;;;;;;21.65;64.65;100784.19;5072112;28;1720;-44
2021/06/12 10:41:06;;;;;;;;;;;;;;;21.62;64.75;100787.19;5061482;28;1736;-44
2021/06/12 10:43:38;;;;;;;;;;;;;;;21.72;64.35;100781.72;5060279;28;1453;-45
2021/06/12 10:46:15;;;;;;;;;;;;;;;21.77;65.56;100790.22;5067151;28;1505;-44
2021/06/12 10:48:42;;;;;;;;;;;;;;;21.72;64.66;100776.34;5062764;28;1550;-44
2021/06/12 10:51:09;;;;;;;;;;;;;;;21.74;64.04;100769.81;5073945;28;1981;-44
2021/06/12 10:53:37;;;;;;;;;;;;;;;21.76;63.04;100767.81;5067495;28;1540;-44
2021/06/12 10:56:13;;;;;;;;;;;;;;;21.73;64.33;100764.59;5066637;28;1786;-44
2021/06/12 10:58:48;;;;;;;;;;;;;;;21.70;64.74;100781.88;5068557;28;1514;-43
2021/06/12 11:01:16;;;;;;;;;;;;;;;21.69;64.52;100761.38;5071077;28;1920;-44
2021/06/12 11:03:51;;;;;;;;;;;;;;;21.69;65.11;100766.75;5059382;28;1758;-44
2021/06/12 11:06:38;;;;;;;;;;;;;;;21.80;64.80;100769.19;5065389;28;1790;-44
2021/06/12 11:09:37;;;;;;;;;;;;;;;21.82;65.02;100751.03;5064423;28;1663;-44
2021/06/12 11:12:25;;;;;;;;;;;;;;;21.74;65.00;100745.59;4987709;28;2022;-43
2021/06/12 11:15:09;;;;;;;;;;;;;;;21.74;65.09;100748.28;4984295;28;1653;-44
2021/06/12 11:17:52;;;;;;;;;;;;;;;21.76;65.33;100746.28;4979483;28;1852;-44
2021/06/12 11:20:33;;;;;;;;;;;;;;;21.80;66.06;100755.72;4982760;28;1519;-44
2021/06/12 11:23:03;;;;;;;;;;;;;;;21.77;65.75;100737.22;5003447;28;1859;-43
2021/06/12 11:25:53;;;;;;;;;;;;;;;21.85;65.78;100741.84;5062213;28;1723;-43
2021/06/12 11:28:21;;;;;;;;;;;;;;;21.79;65.71;100745.16;5072888;28;1534;-44
2021/06/12 11:30:47;;;;;;;;;;;;;;;21.72;65.57;100728.75;5072784;28;1979;-44
2021/06/12 11:33:15;;;;;;;;;;;;;;;21.73;65.74;100749.28;5068270;28;1476;-44
2021/06/12 11:35:56;;;;;;;;;;;;;;;21.73;65.67;100746.59;5072985;28;1489;-44
2021/06/12 11:38:29;;;;;;;;;;;;;;;21.73;65.25;100741.22;5043611;28;1659;-44
2021/06/12 11:41:15;;;;;;;;;;;;;;;21.76;65.71;100732.81;5065978;28;2073;-45
2021/06/12 11:43:44;;;;;;;;;;;;;;;21.81;65.65;100732.38;5062604;28;1674;-44
2021/06/12 11:46:15;;;;;;;;;;;;;;;21.77;65.79;100726.44;5065490;28;1486;-44
2021/06/12 11:48:41;;;;;;;;;;;;;;;21.76;65.13;100713.97;5063243;28;994;-43
2021/06/12 11:51:13;;;;;;;;;;;;;;;21.77;65.27;100715.69;5061495;28;1914;-43
2021/06/12 11:53:44;;;;;;;;;;;;;;;21.74;65.35;100721.34;5062299;28;1283;-44
2021/06/12 11:56:11;;;;;;;;;;;;;;;21.83;64.81;100722.28;5065816;28;1598;-44
2021/06/12 11:58:54;;;;;;;;;;;;;;;21.78;64.16;100701.22;5066640;28;1412;-43
2021/06/12 12:01:33;;;;;;;;;;;;;;;21.94;63.67;100713.13;5054554;28;1990;-44
2021/06/12 12:04:03;;;;;;;;;;;;;;;21.81;63.91;100687.44;5070757;28;2434;-44
2021/06/12 12:06:35;;;;;;;;;;;;;;;21.77;64.48;100704.91;5072793;28;1485;-44
2021/06/12 12:09:04;;;;;;;;;;;;;;;21.75;64.08;100701.53;5068416;28;1421;-45
2021/06/12 12:11:32;;;;;;;;;;;;;;;21.76;64.46;100683.53;5067317;28;1980;-43
2021/06/12 12:14:01;;;;;;;;;;;;;;;21.73;64.55;100698.16;5071970;28;1428;-43
2021/06/12 12:16:29;;;;;;;;;;;;;;;21.75;64.49;100669.22;5070902;28;1998;-44
2021/06/12 12:19:05;;;;;;;;;;;;;;;21.80;64.43;100685.75;5073653;28;1091;-44
2021/06/12 12:21:37;;;;;;;;;;;;;;;21.86;64.76;100692.34;5063725;28;1730;-44
2021/06/12 12:24:05;;;;;;;;;;;;;;;21.83;64.14;100672.00;5065087;28;1429;-43
2021/06/12 12:26:32;;;;;;;;;;;;;;;21.87;64.31;100682.47;5072400;28;1493;-44
2021/06/12 12:29:06;;;;;;;;;;;;;;;21.88;63.68;100662.59;5069822;28;1654;-43
2021/06/12 12:31:34;;;;;;;;;;;;;;;21.96;63.46;100682.34;5065607;28;1906;-44
2021/06/12 12:34:01;;;;;;;;;;;;;;;21.94;63.64;100683.50;5071536;28;1775;-44
2021/06/12 12:36:29;;;;;;;;;;;;;;;21.90;63.33;100668.66;5060105;28;2007;-44
2021/06/12 12:39:04;;;;;;;;;;;;;;;21.88;63.49;100673.38;5064096;28;1517;-43
2021/06/12 12:41:31;;;;;;;;;;;;;;;21.88;63.92;100666.13;5065523;28;1858;-43
2021/06/12 12:44:05;;;;;;;;;;;;;;;21.95;63.30;100669.06;5070399;28;1716;-44
2021/06/12 12:46:32;;;;;;;;;;;;;;;21.87;63.54;100683.28;5061858;28;1822;-44
2021/06/12 12:49:17;;;;;;;;;;;;;;;21.76;64.75;100662.00;5073149;28;1739;-43
2021/06/12 12:51:49;;;;;;;;;;;;;;;21.67;65.12;100677.25;5050824;28;1970;-44
2021/06/12 12:54:16;;;;;;;;;;;;;;;21.58;65.23;100689.75;5061472;28;1099;-43
2021/06/12 12:56:43;;;;;;;;;;;;;;;21.56;65.66;100669.41;5064405;28;1735;-43
2021/06/12 12:59:09;;;;;;;;;;;;;;;21.53;65.90;100678.63;5053151;28;1592;-43
2021/06/12 13:01:35;;;;;;;;;;;;;;;21.51;65.79;100677.09;5062878;28;1486;-44
2021/06/12 13:04:01;;;;;;;;;;;;;;;21.50;65.66;100670.84;5040666;28;1954;-44
2021/06/12 13:06:34;;;;;;;;;;;;;;;21.50;65.52;100676.25;5046626;28;1739;-43
2021/06/12 13:09:07;;;;;;;;;;;;;;;21.50;65.72;100664.66;5041957;28;1939;-43
2021/06/12 13:11:41;;;;;;;;;;;;;;;21.45;65.92;100687.47;5042690;28;1906;-44
2021/06/12 13:14:07;;;;;;;;;;;;;;;21.45;65.46;100674.03;5042476;28;1451;-43
2021/06/12 13:16:33;;;;;;;;;;;;;;;21.43;65.82;100672.50;5041903;28;1482;-44
2021/06/12 13:19:12;;;;;;;;;;;;;;;21.43;66.70;100681.41;5039432;28;1075;-43
2021/06/12 13:21:46;;;;;;;;;;;;;;;21.44;66.33;100683.06;5044043;28;1776;-43
2021/06/12 13:24:12;;;;;;;;;;;;;;;21.44;66.71;100676.84;5038236;28;1310;-44
2021/06/12 13:26:39;;;;;;;;;;;;;;;21.41;65.89;100677.16;5042602;28;1782;-44
2021/06/12 13:29:18;;;;;;;;;;;;;;;21.42;66.19;100676.97;5042990;28;1610;-43
2021/06/12 13:31:47;;;;;;;;;;;;;;;21.42;66.85;100676.13;5040956;28;1996;-44
2021/06/12 13:34:22;;;;;;;;;;;;;;;21.41;66.99;100683.38;5048036;28;1139;-43
2021/06/12 13:36:51;;;;;;;;;;;;;;;21.42;66.65;100687.72;5046884;28;1957;-43